createdAt,value
2024-01-11T00:01:48.244Z,6.40
2024-01-11T00:04:15.975Z,5.63
2024-01-11T00:06:47.173Z,6.72
2024-01-11T00:09:14.568Z,6.68
2024-01-11T00:11:42.023Z,5.27
2024-01-11T00:14:09.625Z,6.22
2024-01-11T00:17:26.657Z,5.38
2024-01-11T00:32:35.506Z,5.43
2024-01-11T00:35:03.112Z,6.18
2024-01-11T00:37:30.793Z,5.50
2024-01-11T00:39:58.554Z,5.07
2024-01-11T00:42:26.355Z,6.03
2024-01-11T00:44:53.845Z,4.63
2024-01-11T00:47:21.464Z,4.75
2024-01-11T00:49:48.972Z,4.07
2024-01-11T00:52:16.600Z,4.55
2024-01-11T00:54:44.132Z,4.20
2024-01-11T00:57:11.649Z,4.78
2024-01-11T00:59:39.087Z,4.80
2024-01-11T01:02:06.930Z,4.70
2024-01-11T01:04:34.333Z,4.75
2024-01-11T01:07:01.802Z,4.47
2024-01-11T01:09:29.328Z,4.75
2024-01-11T01:11:56.752Z,4.70
2024-01-11T01:14:24.142Z,5.03
2024-01-11T01:16:51.844Z,5.32
2024-01-11T01:19:19.264Z,5.33
2024-01-11T01:21:46.685Z,5.57
2024-01-11T01:24:14.034Z,5.45
2024-01-11T01:26:41.660Z,6.25
2024-01-11T01:29:09.080Z,6.07
2024-01-11T01:31:39.168Z,6.43
2024-01-11T01:34:06.874Z,6.35
2024-01-11T01:36:34.608Z,6.32
2024-01-11T01:39:02.005Z,6.15
2024-01-11T01:41:29.409Z,6.28
2024-01-11T01:43:57.160Z,7.10
2024-01-11T01:46:26.484Z,6.20
2024-01-11T01:48:55.953Z,5.97
2024-01-11T01:51:25.158Z,6.07
2024-01-11T01:53:55.833Z,5.78
2024-01-11T01:56:23.282Z,6.10
2024-01-11T01:58:53.163Z,5.97
2024-01-11T02:01:24.851Z,6.32
2024-01-11T02:03:55.290Z,6.20
2024-01-11T02:06:25.596Z,6.28
2024-01-11T02:08:57.798Z,5.43
2024-01-11T02:11:29.970Z,6.30
2024-01-11T02:14:04.503Z,6.05
2024-01-11T02:16:31.869Z,6.82
2024-01-11T02:19:04.015Z,6.85
2024-01-11T02:21:32.706Z,7.20
2024-01-11T02:24:08.391Z,7.25
2024-01-11T02:26:36.099Z,6.75
2024-01-11T02:29:07.034Z,6.15
2024-01-11T02:31:34.589Z,5.97
2024-01-11T02:34:04.058Z,6.03
2024-01-11T02:36:31.656Z,6.85
2024-01-11T02:38:59.396Z,6.50
2024-01-11T02:41:52.258Z,5.57
2024-01-11T02:44:19.647Z,5.50
2024-01-11T02:46:47.097Z,4.63
2024-01-11T02:49:14.585Z,4.80
2024-01-11T02:51:42.039Z,5.63
2024-01-11T02:54:09.575Z,5.20
2024-01-11T02:56:38.309Z,4.10
2024-01-11T02:59:05.900Z,4.70
2024-01-11T03:01:39.846Z,4.95
2024-01-11T03:04:10.033Z,4.15
2024-01-11T03:06:37.563Z,5.65
2024-01-11T03:09:30.486Z,4.60
2024-01-11T03:11:57.835Z,4.27
2024-01-11T03:14:49.789Z,4.93
2024-01-11T03:17:17.225Z,4.97
2024-01-11T03:19:44.704Z,4.65
2024-01-11T03:22:13.459Z,4.63
2024-01-11T03:25:08.832Z,5.50
2024-01-11T03:27:36.360Z,5.32
2024-01-11T03:30:53.856Z,4.40
2024-01-11T03:33:45.837Z,5.15
2024-01-11T03:36:38.805Z,4.60
2024-01-11T03:39:06.264Z,4.67
2024-01-11T03:41:34.039Z,4.45
2024-01-11T03:44:02.352Z,4.88
2024-01-11T03:46:29.815Z,5.40
2024-01-11T03:48:58.386Z,5.07
2024-01-11T03:51:25.960Z,5.23
2024-01-11T03:53:53.465Z,5.30
2024-01-11T03:56:21.441Z,5.40
2024-01-11T03:58:48.864Z,6.05
2024-01-11T04:01:16.829Z,5.35
2024-01-11T04:03:44.508Z,5.53
2024-01-11T04:06:22.789Z,5.32
2024-01-11T04:08:50.599Z,5.38
2024-01-11T04:11:19.168Z,4.90
2024-01-11T04:13:46.615Z,4.88
2024-01-11T04:16:14.200Z,4.97
2024-01-11T04:18:42.182Z,5.30
2024-01-11T04:21:09.729Z,5.00
2024-01-11T04:23:37.319Z,5.45
2024-01-11T04:26:05.083Z,6.35
2024-01-11T04:28:32.445Z,4.37
2024-01-11T04:31:00.170Z,4.95
2024-01-11T04:33:27.753Z,5.45
2024-01-11T04:35:55.193Z,4.78
2024-01-11T04:38:22.721Z,5.18
2024-01-11T04:40:50.602Z,5.17
2024-01-11T04:43:18.052Z,4.80
2024-01-11T04:45:45.660Z,4.72
2024-01-11T04:48:13.288Z,4.13
2024-01-11T04:50:41.033Z,3.75
2024-01-11T04:53:08.624Z,5.23
2024-01-11T04:55:36.624Z,4.97
2024-01-11T04:58:04.247Z,4.40
2024-01-11T05:00:31.802Z,4.93
2024-01-11T05:02:59.248Z,3.67
2024-01-11T05:05:27.043Z,4.30
2024-01-11T05:07:54.451Z,4.10
2024-01-11T05:10:21.947Z,5.00
2024-01-11T05:12:49.312Z,5.00
2024-01-11T05:15:16.718Z,4.68
2024-01-11T05:17:44.827Z,4.83
2024-01-11T05:20:12.786Z,4.30
2024-01-11T05:22:40.621Z,4.22
2024-01-11T05:25:08.313Z,4.43
2024-01-11T05:27:35.774Z,4.93
2024-01-11T05:30:03.260Z,4.33
2024-01-11T05:32:30.783Z,4.68
2024-01-11T05:34:58.562Z,4.78
2024-01-11T05:37:26.436Z,5.03
2024-01-11T05:39:55.576Z,4.55
2024-01-11T05:42:23.493Z,4.33
2024-01-11T05:44:50.945Z,4.32
2024-01-11T05:47:18.396Z,4.57
2024-01-11T05:49:46.717Z,4.90
2024-01-11T05:52:14.106Z,5.05
2024-01-11T05:54:43.477Z,4.87
2024-01-11T05:57:11.050Z,4.82
2024-01-11T05:59:39.284Z,4.75
2024-01-11T06:02:06.917Z,5.30
2024-01-11T06:04:34.899Z,5.25
2024-01-11T06:07:03.115Z,5.10
2024-01-11T06:09:30.921Z,5.40
2024-01-11T06:11:58.589Z,5.70
2024-01-11T06:14:26.337Z,5.80
2024-01-11T06:16:54.596Z,5.85
2024-01-11T06:19:22.225Z,6.07
2024-01-11T06:21:50.278Z,6.15
2024-01-11T06:24:18.031Z,6.30
2024-01-11T06:26:46.139Z,5.53
2024-01-11T06:29:14.034Z,6.10
2024-01-11T06:31:41.884Z,5.13
2024-01-11T06:34:09.688Z,4.80
2024-01-11T06:36:38.598Z,4.50
2024-01-11T06:39:06.655Z,4.57
2024-01-11T06:41:34.245Z,5.00
2024-01-11T06:44:02.132Z,4.30
2024-01-11T06:46:30.156Z,4.30
2024-01-11T06:48:58.423Z,5.15
2024-01-11T06:51:26.175Z,4.30
2024-01-11T06:53:53.622Z,5.03
2024-01-11T06:56:22.493Z,5.47
2024-01-11T06:58:52.220Z,5.45
2024-01-11T07:01:20.575Z,5.07
2024-01-11T07:03:48.495Z,5.93
2024-01-11T07:06:16.193Z,6.00
2024-01-11T07:08:44.283Z,5.63
2024-01-11T07:11:12.805Z,5.40
2024-01-11T07:13:40.788Z,5.97
2024-01-11T07:16:08.350Z,4.72
2024-01-11T07:18:35.885Z,5.05
2024-01-11T07:21:03.576Z,4.00
2024-01-11T07:23:31.307Z,4.50
2024-01-11T07:25:59.984Z,4.90
2024-01-11T07:28:27.553Z,5.03
2024-01-11T07:30:55.139Z,4.85
2024-01-11T07:33:23.353Z,4.60
2024-01-11T07:35:51.501Z,4.55
2024-01-11T07:38:20.749Z,5.20
2024-01-11T07:40:48.163Z,5.20
2024-01-11T07:43:16.254Z,5.25
2024-01-11T07:45:43.859Z,4.43
2024-01-11T07:48:11.486Z,4.40
2024-01-11T07:50:39.267Z,5.70
2024-01-11T07:53:06.748Z,4.85
2024-01-11T07:55:34.213Z,5.43
2024-01-11T07:58:02.130Z,4.80
2024-01-11T08:00:30.272Z,5.10
2024-01-11T08:02:58.139Z,5.30
2024-01-11T08:05:26.622Z,5.35
2024-01-11T08:07:54.280Z,4.97
2024-01-11T08:10:22.168Z,5.23
2024-01-11T08:12:49.612Z,5.32
2024-01-11T08:15:18.264Z,5.72
2024-01-11T08:17:48.928Z,6.55
2024-01-11T08:20:16.787Z,5.47
2024-01-11T08:22:50.255Z,5.33
2024-01-11T08:25:18.073Z,6.00
2024-01-11T08:27:45.578Z,5.80
2024-01-11T08:30:14.482Z,6.85
2024-01-11T08:32:43.599Z,8.23
2024-01-11T08:35:11.869Z,7.87
2024-01-11T08:37:40.280Z,8.52
2024-01-11T08:40:08.272Z,8.75
2024-01-11T08:42:35.726Z,8.68
2024-01-11T08:45:07.953Z,8.48
2024-01-11T08:47:40.050Z,9.60
2024-01-11T08:50:08.312Z,10.77
2024-01-11T08:52:35.853Z,11.57
2024-01-11T08:55:04.882Z,10.57
2024-01-11T08:57:32.368Z,10.20
2024-01-11T08:59:59.739Z,11.23
2024-01-11T09:02:27.775Z,13.68
2024-01-11T09:04:55.506Z,13.15
2024-01-11T09:07:22.866Z,12.13
2024-01-11T09:09:56.221Z,13.45
2024-01-11T09:12:24.965Z,24.13
2024-01-11T09:14:52.656Z,28.17
2024-01-11T09:17:20.267Z,33.75
2024-01-11T09:19:47.837Z,20.83
2024-01-11T09:22:15.568Z,49.55
2024-01-11T09:24:42.956Z,113.13
2024-01-11T09:27:10.444Z,73.38
2024-01-11T09:29:38.342Z,53.83
2024-01-11T09:32:07.012Z,52.83
2024-01-11T09:34:35.331Z,27.55
2024-01-11T09:37:03.045Z,38.97
2024-01-11T09:39:30.990Z,29.38
2024-01-11T09:42:04.635Z,15.88
2024-01-11T09:44:32.231Z,8.70
2024-01-11T09:47:01.730Z,7.82
2024-01-11T09:49:31.998Z,9.40
2024-01-11T09:51:59.508Z,7.63
2024-01-11T09:54:28.097Z,8.05
2024-01-11T09:56:59.405Z,9.40
2024-01-11T09:59:27.604Z,11.18
2024-01-11T10:01:55.674Z,17.53
2024-01-11T10:04:23.536Z,29.52
2024-01-11T10:06:53.231Z,19.70
2024-01-11T10:09:21.366Z,12.68
2024-01-11T10:11:50.067Z,7.90
2024-01-11T10:14:17.882Z,9.23
2024-01-11T10:16:45.279Z,8.88
2024-01-11T10:19:15.364Z,9.52
2024-01-11T10:21:43.215Z,10.32
2024-01-11T10:24:10.815Z,9.50
2024-01-11T10:26:38.520Z,9.97
2024-01-11T10:29:13.766Z,9.30
2024-01-11T10:31:42.234Z,10.23
2024-01-11T10:34:09.888Z,10.15
2024-01-11T10:36:37.671Z,9.27
2024-01-11T10:39:08.993Z,8.77
2024-01-11T10:41:42.123Z,10.52
2024-01-11T10:44:20.204Z,11.20
2024-01-11T10:46:48.338Z,11.20
2024-01-11T10:49:22.837Z,10.20
2024-01-11T10:52:00.697Z,7.22
2024-01-11T10:54:32.172Z,6.93
2024-01-11T10:57:04.247Z,6.35
2024-01-11T10:59:33.784Z,6.43
2024-01-11T11:02:14.355Z,6.07
2024-01-11T11:04:43.321Z,5.32
2024-01-11T11:07:11.482Z,6.03
2024-01-11T11:09:41.909Z,6.28
2024-01-11T11:12:10.746Z,7.53
2024-01-11T11:14:40.040Z,7.80
2024-01-11T11:17:07.986Z,6.05
2024-01-11T11:19:35.516Z,4.75
2024-01-11T11:22:06.405Z,4.40
2024-01-11T11:24:36.749Z,4.78
2024-01-11T11:27:05.059Z,4.88
2024-01-11T11:29:32.742Z,4.93
2024-01-11T11:32:00.876Z,4.88
2024-01-11T11:34:43.324Z,5.35
2024-01-11T11:37:11.514Z,4.70
2024-01-11T11:39:39.409Z,4.50
2024-01-11T11:42:08.940Z,4.68
2024-01-11T11:44:36.472Z,4.00
2024-01-11T11:47:24.571Z,4.80
2024-01-11T11:50:02.083Z,5.15
2024-01-11T11:52:30.286Z,5.38
2024-01-11T11:54:58.628Z,5.47
2024-01-11T11:57:26.160Z,6.00
2024-01-11T11:59:55.364Z,6.82
2024-01-11T12:02:24.349Z,7.05
2024-01-11T12:04:51.983Z,7.32
2024-01-11T12:07:19.727Z,7.47
2024-01-11T12:09:48.318Z,6.03
2024-01-11T12:12:16.689Z,5.80
2024-01-11T12:14:44.289Z,5.15
2024-01-11T12:17:11.729Z,6.07
2024-01-11T12:19:39.123Z,6.47
2024-01-11T12:22:06.799Z,5.90
2024-01-11T12:24:34.925Z,5.45
2024-01-11T12:27:03.204Z,6.10
2024-01-11T12:29:39.817Z,6.80
2024-01-11T12:32:17.005Z,5.50
2024-01-11T12:34:46.048Z,6.22
2024-01-11T12:37:13.547Z,6.93
2024-01-11T12:39:41.311Z,6.55
2024-01-11T12:42:08.975Z,6.60
2024-01-11T12:44:39.043Z,7.15
2024-01-11T12:47:06.951Z,7.57
2024-01-11T12:49:34.392Z,6.70
2024-01-11T12:52:01.767Z,7.35
2024-01-11T12:54:29.255Z,7.60
2024-01-11T12:56:56.764Z,7.30
2024-01-11T12:59:28.122Z,6.63
2024-01-11T13:01:55.718Z,7.05
2024-01-11T13:04:23.204Z,7.47
2024-01-11T13:06:50.818Z,8.15
2024-01-11T13:09:19.236Z,7.35
2024-01-11T13:11:46.761Z,7.78
2024-01-11T13:14:20.422Z,7.95
2024-01-11T13:16:50.096Z,7.05
2024-01-11T13:19:24.554Z,7.25
2024-01-11T13:21:54.922Z,7.82
2024-01-11T13:24:22.464Z,7.70
2024-01-11T13:26:50.307Z,7.43
2024-01-11T13:29:17.727Z,7.40
2024-01-11T13:31:45.094Z,6.68
2024-01-11T13:34:12.518Z,6.10
2024-01-11T13:36:40.319Z,5.88
2024-01-11T13:39:10.189Z,6.20
2024-01-11T13:41:38.375Z,5.63
2024-01-11T13:44:07.501Z,5.20
2024-01-11T13:46:35.322Z,5.10
2024-01-11T13:49:04.937Z,4.57
2024-01-11T13:51:40.359Z,4.68
2024-01-11T13:54:13.408Z,4.25
2024-01-11T13:56:40.853Z,3.92
2024-01-11T13:59:09.159Z,3.95
2024-01-11T14:01:36.601Z,4.32
2024-01-11T14:04:05.102Z,3.60
2024-01-11T14:06:33.311Z,4.35
2024-01-11T14:09:00.787Z,4.47
2024-01-11T14:11:28.457Z,5.05
2024-01-11T14:13:55.896Z,4.60
2024-01-11T14:16:25.149Z,4.88
2024-01-11T14:18:52.896Z,5.43
2024-01-11T14:21:20.605Z,4.60
2024-01-11T14:23:48.184Z,4.70
2024-01-11T14:26:15.654Z,5.07
2024-01-11T14:28:44.309Z,5.10
2024-01-11T14:31:12.842Z,4.70
2024-01-11T14:33:40.715Z,4.88
2024-01-11T14:36:08.633Z,4.97
2024-01-11T14:38:36.298Z,5.07
2024-01-11T14:41:04.420Z,5.05
2024-01-11T14:43:32.455Z,5.60
2024-01-11T14:46:01.117Z,5.50
2024-01-11T14:48:32.200Z,6.25
2024-01-11T14:50:59.745Z,6.07
2024-01-11T14:53:27.450Z,5.93
2024-01-11T14:55:55.622Z,6.10
2024-01-11T14:58:23.013Z,5.07
2024-01-11T15:00:50.416Z,5.38
2024-01-11T15:03:20.511Z,6.78
2024-01-11T15:05:48.728Z,8.40
2024-01-11T15:08:16.624Z,6.90
2024-01-11T15:10:44.298Z,8.38
2024-01-11T15:13:12.776Z,7.40
2024-01-11T15:15:40.898Z,6.03
2024-01-11T15:18:08.753Z,5.53
2024-01-11T15:20:36.390Z,5.75
2024-01-11T15:23:06.498Z,6.13
2024-01-11T15:25:34.004Z,7.05
2024-01-11T15:28:01.486Z,6.85
2024-01-11T15:30:29.321Z,7.65
2024-01-11T15:32:59.702Z,7.78
2024-01-11T15:35:29.412Z,6.53
2024-01-11T15:37:57.647Z,6.07
2024-01-11T15:40:25.201Z,6.15
2024-01-11T15:42:52.725Z,6.72
2024-01-11T15:45:20.467Z,6.13
2024-01-11T15:47:48.002Z,6.63
2024-01-11T15:50:15.590Z,7.43
2024-01-11T15:52:43.885Z,6.38
2024-01-11T15:55:11.502Z,6.35
2024-01-11T15:57:38.995Z,7.68
2024-01-11T16:00:11.759Z,6.65
2024-01-11T16:02:41.901Z,6.85
2024-01-11T16:05:11.382Z,6.13
2024-01-11T16:07:39.908Z,6.38
2024-01-11T16:10:07.930Z,7.53
2024-01-11T16:12:35.356Z,8.43
2024-01-11T16:15:03.355Z,8.13
2024-01-11T16:17:33.276Z,7.93
2024-01-11T16:20:01.465Z,8.13
2024-01-11T16:22:28.912Z,9.15
2024-01-11T16:24:56.392Z,9.82
2024-01-11T16:27:23.839Z,9.77
2024-01-11T16:29:51.342Z,8.35
2024-01-11T16:32:19.487Z,6.95
2024-01-11T16:34:47.260Z,6.72
2024-01-11T16:37:15.686Z,5.70
2024-01-11T16:39:44.536Z,6.93
2024-01-11T16:42:12.083Z,6.38
2024-01-11T16:44:39.923Z,7.70
2024-01-11T16:47:07.416Z,6.63
2024-01-11T16:49:34.976Z,6.80
2024-01-11T16:52:05.862Z,8.50
2024-01-11T16:54:33.773Z,7.82
2024-01-11T16:57:01.172Z,6.78
2024-01-11T16:59:28.568Z,7.70
2024-01-11T17:01:55.964Z,7.47
2024-01-11T17:04:23.858Z,8.15
2024-01-11T17:06:51.472Z,9.17
2024-01-11T17:09:18.870Z,11.00
2024-01-11T17:11:46.335Z,9.60
2024-01-11T17:14:13.822Z,7.95
2024-01-11T17:16:41.530Z,7.40
2024-01-11T17:19:09.083Z,6.60
2024-01-11T17:21:36.926Z,7.80
2024-01-11T17:24:05.785Z,7.13
2024-01-11T17:26:33.502Z,6.57
2024-01-11T17:29:01.408Z,5.90
2024-01-11T17:31:29.944Z,7.15
2024-01-11T17:33:58.327Z,6.85
2024-01-11T17:36:28.402Z,7.75
2024-01-11T17:38:56.945Z,6.15
2024-01-11T17:41:24.517Z,5.80
2024-01-11T17:43:51.990Z,5.82
2024-01-11T17:46:25.643Z,6.18
2024-01-11T17:48:54.432Z,5.90
2024-01-11T17:51:22.794Z,6.15
2024-01-11T17:53:53.128Z,5.85
2024-01-11T17:56:23.789Z,6.20
2024-01-11T17:58:52.209Z,6.40
2024-01-11T18:01:29.010Z,5.97
2024-01-11T18:03:56.459Z,5.43
2024-01-11T18:06:24.756Z,6.57
2024-01-11T18:08:52.444Z,6.00
2024-01-11T18:11:20.121Z,5.53
2024-01-11T18:13:48.792Z,5.50
2024-01-11T18:16:16.425Z,5.75
2024-01-11T18:18:45.088Z,6.03
2024-01-11T18:21:12.715Z,6.00
2024-01-11T18:23:40.132Z,5.72
2024-01-11T18:26:07.638Z,7.40
2024-01-11T18:28:35.068Z,5.20
2024-01-11T18:31:03.450Z,5.57
2024-01-11T18:33:30.977Z,4.75
2024-01-11T18:35:58.425Z,3.90
2024-01-11T18:38:26.143Z,4.55
2024-01-11T18:40:53.522Z,5.10
2024-01-11T18:43:21.193Z,4.80
2024-01-11T18:45:52.057Z,3.63
2024-01-11T18:48:21.325Z,4.97
2024-01-11T18:50:49.085Z,4.55
2024-01-11T18:53:18.694Z,4.82
2024-01-11T18:55:46.327Z,4.63
2024-01-11T18:58:16.001Z,4.23
2024-01-11T19:00:43.407Z,4.75
2024-01-11T19:03:13.094Z,4.53
2024-01-11T19:05:41.693Z,4.18
2024-01-11T19:08:09.462Z,4.57
2024-01-11T19:10:37.121Z,4.72
2024-01-11T19:13:10.076Z,4.95
2024-01-11T19:15:37.751Z,5.32
2024-01-11T19:18:06.133Z,5.28
2024-01-11T19:20:33.691Z,4.60
2024-01-11T19:23:01.154Z,4.82
2024-01-11T19:25:28.583Z,5.40
2024-01-11T19:27:59.762Z,5.65
2024-01-11T19:30:28.629Z,5.18
2024-01-11T19:32:56.712Z,3.87
2024-01-11T19:35:24.339Z,3.67
2024-01-11T19:37:51.954Z,4.13
2024-01-11T19:40:19.755Z,5.10
2024-01-11T19:42:47.774Z,4.85
2024-01-11T19:45:16.223Z,4.67
2024-01-11T19:47:43.802Z,4.75
2024-01-11T19:50:11.685Z,4.78
2024-01-11T19:52:39.608Z,5.38
2024-01-11T19:55:07.285Z,4.50
2024-01-11T19:57:35.342Z,3.73
2024-01-11T20:00:03.371Z,4.40
2024-01-11T20:02:38.566Z,3.75
2024-01-11T20:05:07.433Z,4.13
2024-01-11T20:07:35.827Z,3.75
2024-01-11T20:10:03.440Z,3.93
2024-01-11T20:12:31.296Z,4.28
2024-01-11T20:14:58.883Z,4.22
2024-01-11T20:17:26.333Z,5.10
2024-01-11T20:19:53.849Z,4.13
2024-01-11T20:22:21.565Z,4.73
2024-01-11T20:24:49.857Z,4.22
2024-01-11T20:27:18.121Z,3.58
2024-01-11T20:29:45.743Z,5.05
2024-01-11T20:32:13.121Z,5.15
2024-01-11T20:34:41.505Z,5.72
2024-01-11T20:37:08.947Z,4.65
2024-01-11T20:39:36.369Z,5.57
2024-01-11T20:42:04.106Z,5.40
2024-01-11T20:44:31.528Z,5.90
2024-01-11T20:46:58.961Z,5.60
2024-01-11T20:49:26.572Z,5.45
2024-01-11T20:51:58.576Z,4.70
2024-01-11T20:54:25.985Z,5.22
2024-01-11T20:56:53.658Z,5.07
2024-01-11T20:59:21.085Z,4.37
2024-01-11T21:01:48.885Z,5.32
2024-01-11T21:04:16.357Z,5.93
2024-01-11T21:06:45.741Z,6.15
2024-01-11T21:09:13.479Z,5.07
2024-01-11T21:11:42.008Z,4.87
2024-01-11T21:14:09.712Z,5.00
2024-01-11T21:16:37.319Z,5.05
2024-01-11T21:19:06.870Z,4.97
2024-01-11T21:21:40.037Z,5.25
2024-01-11T21:24:07.740Z,5.67
2024-01-11T21:26:36.304Z,5.07
2024-01-11T21:29:03.879Z,4.32
2024-01-11T21:31:34.679Z,4.93
2024-01-11T21:34:04.720Z,4.97
2024-01-11T21:36:34.298Z,5.30
2024-01-11T21:39:04.289Z,5.95
2024-01-11T21:41:32.984Z,5.30
2024-01-11T21:44:01.269Z,6.35
2024-01-11T21:46:29.346Z,5.22
2024-01-11T21:48:58.315Z,6.07
2024-01-11T21:51:25.895Z,4.80
2024-01-11T21:53:59.603Z,5.45
2024-01-11T21:56:28.134Z,6.13
2024-01-11T21:58:56.110Z,5.75
2024-01-11T22:01:23.621Z,5.17
2024-01-11T22:03:51.606Z,5.45
2024-01-11T22:06:22.504Z,5.45
2024-01-11T22:08:50.029Z,5.68
2024-01-11T22:11:20.830Z,4.93
2024-01-11T22:13:49.660Z,4.63
2024-01-11T22:16:17.085Z,5.43
2024-01-11T22:18:45.161Z,4.95
2024-01-11T22:21:12.925Z,5.60
2024-01-11T22:23:41.284Z,5.20
2024-01-11T22:26:08.754Z,5.20
2024-01-11T22:28:36.409Z,4.85
2024-01-11T22:31:04.250Z,5.05
2024-01-11T22:33:31.933Z,4.97
2024-01-11T22:35:59.524Z,4.55
2024-01-11T22:38:29.250Z,5.30
2024-01-11T22:40:57.172Z,5.03
2024-01-11T22:43:25.136Z,3.88
2024-01-11T22:45:54.261Z,3.13
2024-01-11T22:48:22.145Z,3.92
2024-01-11T22:50:50.102Z,4.43
2024-01-11T22:53:17.794Z,4.40
2024-01-11T22:55:45.257Z,4.80
2024-01-11T22:58:13.432Z,4.25
2024-01-11T23:00:41.412Z,3.97
2024-01-11T23:03:09.050Z,3.67
2024-01-11T23:05:37.083Z,4.13
2024-01-11T23:08:04.981Z,4.18
2024-01-11T23:10:33.044Z,4.10
2024-01-11T23:13:00.426Z,4.70
2024-01-11T23:15:28.468Z,2.97
2024-01-11T23:17:56.108Z,3.53
2024-01-11T23:20:23.543Z,3.88
2024-01-11T23:22:51.018Z,4.13
2024-01-11T23:25:18.387Z,3.53
2024-01-11T23:27:45.825Z,4.40
2024-01-11T23:30:14.028Z,3.67
2024-01-11T23:32:42.871Z,3.95
2024-01-11T23:35:10.591Z,3.95
2024-01-11T23:37:38.671Z,3.50
2024-01-11T23:40:07.000Z,4.10
2024-01-11T23:42:34.794Z,3.97
2024-01-11T23:45:03.874Z,4.13
2024-01-11T23:47:33.771Z,4.88
2024-01-11T23:50:01.546Z,4.93
2024-01-11T23:52:29.026Z,5.00
2024-01-11T23:54:56.622Z,3.33
2024-01-11T23:57:24.053Z,4.28
2024-01-11T23:59:51.562Z,4.35
